Time;durP1;ratioP1;P1;durP2;ratioP2;P2;SDS_P1;SDS_P2;PMS_P1;PMS_P2;Temp;Humidity;BMP_temperature;BMP_pressure;BME280_temperature;BME280_humidity;BME280_pressure;Samples;Min_cycle;Max_cycle;Signal;HPM_P1;HPM_P2
2023/07/20 00:01:28;;;;;;;5.45;3.38;;;;;;;;;;5000328;28;20507;-70
2023/07/20 00:03:56;;;;;;;3.80;3.25;;;;;;;;;;5004436;28;20049;-71
2023/07/20 00:06:23;;;;;;;5.25;3.55;;;;;;;;;;5004104;28;20069;-70
2023/07/20 00:08:49;;;;;;;6.43;3.58;;;;;;;;;;5000028;28;20053;-71
2023/07/20 00:11:14;;;;;;;4.70;3.30;;;;;;;;;;4999499;28;20076;-71
2023/07/20 00:13:40;;;;;;;7.35;3.72;;;;;;;;;;5001065;28;20045;-71
2023/07/20 00:16:06;;;;;;;4.82;3.45;;;;;;;;;;5012357;28;20060;-71
2023/07/20 00:18:31;;;;;;;6.35;3.67;;;;;;;;;;5005314;28;20042;-70
2023/07/20 00:20:57;;;;;;;18.52;3.50;;;;;;;;;;4999502;28;20525;-73
2023/07/20 00:23:22;;;;;;;4.50;3.30;;;;;;;;;;5000554;28;20201;-73
2023/07/20 00:25:48;;;;;;;7.47;3.42;;;;;;;;;;4998518;28;20056;-73
2023/07/20 00:28:14;;;;;;;7.40;3.47;;;;;;;;;;5000408;28;20034;-70
2023/07/20 00:30:41;;;;;;;22.92;3.67;;;;;;;;;;5000421;28;20042;-71
2023/07/20 00:33:11;;;;;;;7.13;3.63;;;;;;;;;;4998061;28;20046;-71
2023/07/20 00:35:40;;;;;;;7.05;3.55;;;;;;;;;;5000440;28;20053;-71
2023/07/20 00:38:05;;;;;;;6.43;3.65;;;;;;;;;;5008046;28;20057;-71
2023/07/20 00:40:38;;;;;;;7.32;3.42;;;;;;;;;;5000897;28;20042;-71
2023/07/20 00:43:03;;;;;;;7.20;3.22;;;;;;;;;;4998046;28;20056;-71
2023/07/20 00:45:30;;;;;;;8.00;3.72;;;;;;;;;;4998476;28;20038;-71
2023/07/20 00:47:56;;;;;;;5.50;3.00;;;;;;;;;;4998588;28;20107;-71
2023/07/20 00:50:22;;;;;;;6.28;3.42;;;;;;;;;;5001428;28;20060;-71
2023/07/20 00:52:48;;;;;;;6.95;3.70;;;;;;;;;;5007363;28;20499;-70
2023/07/20 00:55:14;;;;;;;10.20;3.95;;;;;;;;;;4998012;28;20132;-71
2023/07/20 00:57:40;;;;;;;5.47;3.90;;;;;;;;;;5004821;28;20144;-71
2023/07/20 01:00:06;;;;;;;9.48;3.42;;;;;;;;;;5001497;28;20050;-71
2023/07/20 01:02:31;;;;;;;6.72;3.60;;;;;;;;;;5001861;28;20058;-72
2023/07/20 01:04:57;;;;;;;5.72;3.50;;;;;;;;;;5004365;28;20068;-71
2023/07/20 01:07:30;;;;;;;7.05;3.53;;;;;;;;;;5001936;28;20149;-71
2023/07/20 01:10:25;;;;;;;8.55;3.67;;;;;;;;;;5001686;28;20160;-71
2023/07/20 01:12:55;;;;;;;9.98;3.90;;;;;;;;;;5002654;28;20048;-71
2023/07/20 01:15:20;;;;;;;5.80;3.40;;;;;;;;;;5001825;28;20070;-71
2023/07/20 01:17:46;;;;;;;5.38;3.92;;;;;;;;;;5003292;28;20120;-71
2023/07/20 01:20:14;;;;;;;9.90;3.72;;;;;;;;;;5001694;28;20053;-71
2023/07/20 01:23:22;;;;;;;8.95;3.67;;;;;;;;;;5003724;28;20053;-71
2023/07/20 01:25:50;;;;;;;9.77;3.97;;;;;;;;;;5009924;28;20045;-70
2023/07/20 01:28:35;;;;;;;8.32;4.00;;;;;;;;;;5006450;28;20112;-71
2023/07/20 01:31:29;;;;;;;6.53;3.72;;;;;;;;;;5001543;28;20438;-71
2023/07/20 01:33:58;;;;;;;8.07;3.60;;;;;;;;;;4994513;28;20446;-71
2023/07/20 01:36:30;;;;;;;6.85;3.60;;;;;;;;;;5001639;28;20057;-71
2023/07/20 01:38:56;;;;;;;5.63;3.15;;;;;;;;;;5000622;28;20045;-71
2023/07/20 01:41:22;;;;;;;5.97;3.17;;;;;;;;;;5006566;28;20049;-70
2023/07/20 01:43:48;;;;;;;5.32;3.50;;;;;;;;;;5001089;28;20168;-71
2023/07/20 01:46:15;;;;;;;9.10;3.60;;;;;;;;;;5001493;28;21137;-73
2023/07/20 01:48:40;;;;;;;8.63;3.47;;;;;;;;;;5001136;28;20064;-73
2023/07/20 01:51:07;;;;;;;7.28;3.65;;;;;;;;;;5002784;28;20131;-72
2023/07/20 01:53:33;;;;;;;6.10;3.33;;;;;;;;;;4999400;28;20422;-71
2023/07/20 01:55:59;;;;;;;7.10;3.50;;;;;;;;;;5008718;28;20042;-71
2023/07/20 01:58:25;;;;;;;7.97;4.07;;;;;;;;;;5002221;28;20681;-72
2023/07/20 02:00:50;;;;;;;6.53;3.38;;;;;;;;;;5000819;28;20088;-72
2023/07/20 02:03:16;;;;;;;8.23;3.63;;;;;;;;;;4999819;28;20058;-72
2023/07/20 02:05:44;;;;;;;6.32;3.72;;;;;;;;;;5002597;28;20049;-69
2023/07/20 02:08:10;;;;;;;6.75;3.80;;;;;;;;;;5000780;28;20156;-68
2023/07/20 02:10:36;;;;;;;5.90;4.07;;;;;;;;;;5001719;28;20137;-69
2023/07/20 02:13:01;;;;;;;4.35;3.65;;;;;;;;;;4999889;28;20045;-70
2023/07/20 02:15:27;;;;;;;5.18;3.90;;;;;;;;;;5002044;28;20045;-72
2023/07/20 02:17:53;;;;;;;8.98;3.35;;;;;;;;;;5001543;28;20045;-70
2023/07/20 02:20:19;;;;;;;9.10;3.90;;;;;;;;;;5002129;28;20100;-68
2023/07/20 02:22:45;;;;;;;6.38;3.63;;;;;;;;;;5002163;28;20041;-68
2023/07/20 02:25:10;;;;;;;5.07;3.45;;;;;;;;;;4999470;28;20046;-69
2023/07/20 02:27:37;;;;;;;8.93;3.65;;;;;;;;;;5000659;28;20072;-68
2023/07/20 02:30:03;;;;;;;5.43;3.40;;;;;;;;;;5000416;28;20041;-69
2023/07/20 02:32:30;;;;;;;6.28;4.15;;;;;;;;;;5000865;28;20115;-70
2023/07/20 02:34:55;;;;;;;9.05;3.42;;;;;;;;;;5006833;28;20049;-68
2023/07/20 02:37:21;;;;;;;4.88;3.45;;;;;;;;;;5002061;28;20057;-69
2023/07/20 02:39:47;;;;;;;10.30;3.58;;;;;;;;;;5000688;28;20041;-70
2023/07/20 02:42:13;;;;;;;3.90;3.03;;;;;;;;;;5000408;28;20049;-69
2023/07/20 02:44:38;;;;;;;7.22;3.17;;;;;;;;;;5000566;28;20053;-69
2023/07/20 02:47:05;;;;;;;4.80;3.10;;;;;;;;;;4999906;28;20041;-69
2023/07/20 02:49:30;;;;;;;6.75;3.30;;;;;;;;;;5004513;28;20052;-71
2023/07/20 02:51:55;;;;;;;7.90;3.20;;;;;;;;;;4999991;28;20077;-69
2023/07/20 02:54:21;;;;;;;8.18;3.17;;;;;;;;;;5001827;28;20491;-69
2023/07/20 02:56:47;;;;;;;6.00;3.17;;;;;;;;;;4999284;28;20521;-68
2023/07/20 02:59:12;;;;;;;5.32;3.00;;;;;;;;;;4997949;28;20064;-69
2023/07/20 03:01:38;;;;;;;4.00;3.20;;;;;;;;;;5001599;28;20049;-71
2023/07/20 03:04:03;;;;;;;6.53;3.30;;;;;;;;;;5022705;28;20048;-72
2023/07/20 03:06:29;;;;;;;5.68;2.92;;;;;;;;;;5001353;28;20054;-70
2023/07/20 03:08:54;;;;;;;5.53;2.90;;;;;;;;;;5000270;28;20048;-73
2023/07/20 03:11:20;;;;;;;6.68;3.10;;;;;;;;;;5000708;28;20112;-70
2023/07/20 03:13:47;;;;;;;8.40;3.00;;;;;;;;;;5016025;28;20042;-70
2023/07/20 03:16:15;;;;;;;3.17;2.58;;;;;;;;;;5000102;28;20042;-71
2023/07/20 03:18:42;;;;;;;6.47;3.00;;;;;;;;;;5000144;28;20133;-70
2023/07/20 03:21:08;;;;;;;5.32;2.83;;;;;;;;;;5000132;28;20634;-71
2023/07/20 03:23:34;;;;;;;3.25;2.67;;;;;;;;;;4999852;28;20575;-70
2023/07/20 03:26:03;;;;;;;4.65;2.78;;;;;;;;;;5001067;28;20103;-70
2023/07/20 03:28:30;;;;;;;3.05;2.25;;;;;;;;;;4999521;28;20038;-70
2023/07/20 03:30:57;;;;;;;3.38;2.50;;;;;;;;;;5004633;28;20111;-70
2023/07/20 03:33:25;;;;;;;3.22;1.95;;;;;;;;;;4999655;28;20046;-68
2023/07/20 03:35:51;;;;;;;5.20;2.58;;;;;;;;;;5003262;28;20041;-69
2023/07/20 03:38:17;;;;;;;6.22;2.38;;;;;;;;;;5004832;28;20049;-69
2023/07/20 03:40:57;;;;;;;2.88;2.10;;;;;;;;;;5000017;28;20557;-70
2023/07/20 03:43:23;;;;;;;6.93;2.35;;;;;;;;;;4999136;28;20049;-70
2023/07/20 03:45:49;;;;;;;2.13;1.65;;;;;;;;;;5000540;28;20050;-69
2023/07/20 03:48:21;;;;;;;3.30;2.35;;;;;;;;;;5002598;28;20046;-70
2023/07/20 03:50:48;;;;;;;3.40;2.35;;;;;;;;;;4999357;28;20092;-69
2023/07/20 03:53:14;;;;;;;4.03;2.25;;;;;;;;;;4996985;28;20041;-70
2023/07/20 03:55:46;;;;;;;8.18;2.38;;;;;;;;;;4998821;28;20833;-71
2023/07/20 03:58:13;;;;;;;;;;;;;;;;;;4999114;28;20088;-71
2023/07/20 04:00:38;;;;;;;7.30;2.40;;;;;;;;;;5014719;28;19921;-70
2023/07/20 04:03:04;;;;;;;3.88;2.33;;;;;;;;;;4999418;28;20041;-70
2023/07/20 04:05:29;;;;;;;4.18;2.13;;;;;;;;;;4998569;28;20414;-70
2023/07/20 04:07:55;;;;;;;3.67;2.20;;;;;;;;;;5002217;28;20049;-70
2023/07/20 04:10:20;;;;;;;2.72;2.13;;;;;;;;;;5012279;28;20410;-71
2023/07/20 04:12:49;;;;;;;3.42;2.10;;;;;;;;;;5005629;28;20056;-69
2023/07/20 04:15:14;;;;;;;3.92;2.25;;;;;;;;;;4998261;28;20064;-70
2023/07/20 04:17:40;;;;;;;5.65;1.98;;;;;;;;;;4998756;28;20054;-70
2023/07/20 04:20:07;;;;;;;3.03;1.70;;;;;;;;;;4998921;28;20057;-71
2023/07/20 04:22:32;;;;;;;2.67;1.85;;;;;;;;;;5004600;28;20045;-70
2023/07/20 04:24:58;;;;;;;1.83;1.52;;;;;;;;;;4997114;28;20319;-71
2023/07/20 04:27:23;;;;;;;2.20;1.52;;;;;;;;;;4998521;28;20137;-71
2023/07/20 04:29:49;;;;;;;2.85;1.50;;;;;;;;;;4999280;28;20045;-71
2023/07/20 04:32:14;;;;;;;3.67;1.88;;;;;;;;;;5001367;28;20057;-70
2023/07/20 04:34:40;;;;;;;5.65;1.58;;;;;;;;;;5008872;28;20041;-71
2023/07/20 04:37:05;;;;;;;1.60;1.50;;;;;;;;;;5010245;28;20099;-71
2023/07/20 04:39:31;;;;;;;3.45;2.05;;;;;;;;;;5010506;28;20134;-71
2023/07/20 04:41:57;;;;;;;2.00;1.80;;;;;;;;;;5010178;28;20057;-71
2023/07/20 04:44:24;;;;;;;2.88;1.40;;;;;;;;;;5008334;28;20096;-71
2023/07/20 04:46:49;;;;;;;8.60;2.53;;;;;;;;;;5023328;28;20454;-72
2023/07/20 04:49:15;;;;;;;1.98;1.50;;;;;;;;;;5006147;28;20049;-71
2023/07/20 04:51:42;;;;;;;4.00;1.65;;;;;;;;;;5007312;28;20503;-72
2023/07/20 04:54:09;;;;;;;3.08;1.80;;;;;;;;;;5006906;28;20124;-71
2023/07/20 04:56:36;;;;;;;4.88;1.70;;;;;;;;;;5007920;28;21153;-72
2023/07/20 04:59:05;;;;;;;2.20;1.58;;;;;;;;;;5010127;28;20136;-71
2023/07/20 05:01:30;;;;;;;3.28;1.30;;;;;;;;;;5005954;28;20808;-71
2023/07/20 05:03:56;;;;;;;3.88;1.40;;;;;;;;;;5006873;28;21165;-71
2023/07/20 05:06:21;;;;;;;4.57;1.80;;;;;;;;;;5028373;28;20496;-70
2023/07/20 05:08:47;;;;;;;2.05;1.40;;;;;;;;;;4989417;28;20046;-72
2023/07/20 05:11:13;;;;;;;1.45;1.35;;;;;;;;;;5012033;28;20056;-71
2023/07/20 05:13:38;;;;;;;2.28;1.80;;;;;;;;;;5009411;28;20092;-70
2023/07/20 05:16:04;;;;;;;4.15;1.42;;;;;;;;;;5012524;28;20057;-69
2023/07/20 05:18:31;;;;;;;3.35;1.33;;;;;;;;;;5007877;28;20128;-69
2023/07/20 05:20:56;;;;;;;3.03;1.63;;;;;;;;;;5009055;28;20124;-69
2023/07/20 05:23:22;;;;;;;4.53;1.50;;;;;;;;;;5009490;28;20053;-69
2023/07/20 05:25:58;;;;;;;3.50;1.42;;;;;;;;;;5024409;28;20073;-69
2023/07/20 05:28:26;;;;;;;2.10;1.40;;;;;;;;;;5007157;28;20038;-69
2023/07/20 05:30:51;;;;;;;3.25;1.38;;;;;;;;;;5008155;28;20044;-72
2023/07/20 05:33:18;;;;;;;4.00;1.45;;;;;;;;;;5007168;28;20054;-69
2023/07/20 05:35:44;;;;;;;5.78;1.58;;;;;;;;;;5010886;28;20053;-69
2023/07/20 05:38:09;;;;;;;3.00;1.45;;;;;;;;;;5011415;28;20108;-70
2023/07/20 05:40:38;;;;;;;5.93;1.60;;;;;;;;;;5002366;28;20063;-70
2023/07/20 05:43:03;;;;;;;1.95;1.23;;;;;;;;;;5003217;28;20132;-70
2023/07/20 05:45:28;;;;;;;1.67;1.58;;;;;;;;;;5001950;28;20175;-69
2023/07/20 05:47:54;;;;;;;2.58;1.55;;;;;;;;;;5002590;28;20081;-69
2023/07/20 05:50:19;;;;;;;4.60;1.50;;;;;;;;;;5003184;28;20084;-70
2023/07/20 05:52:45;;;;;;;3.88;1.60;;;;;;;;;;5001431;28;20132;-71
2023/07/20 05:55:10;;;;;;;3.38;1.50;;;;;;;;;;5004442;28;20419;-71
2023/07/20 05:57:36;;;;;;;3.55;1.30;;;;;;;;;;5001070;28;20057;-74
2023/07/20 06:00:02;;;;;;;2.03;1.08;;;;;;;;;;5004344;28;20044;-73
2023/07/20 06:02:37;;;;;;;3.50;1.17;;;;;;;;;;5000750;28;20050;-72
2023/07/20 06:05:03;;;;;;;1.83;1.33;;;;;;;;;;5002094;28;20136;-72
2023/07/20 06:07:28;;;;;;;3.05;1.45;;;;;;;;;;5007707;28;20085;-74
2023/07/20 06:09:54;;;;;;;1.63;1.52;;;;;;;;;;5007756;28;20056;-71
2023/07/20 06:12:19;;;;;;;5.47;1.50;;;;;;;;;;5006580;28;20076;-73
2023/07/20 06:14:45;;;;;;;1.83;1.27;;;;;;;;;;5003015;28;20049;-73
2023/07/20 06:17:10;;;;;;;5.22;1.40;;;;;;;;;;5006597;28;20045;-74
2023/07/20 06:19:36;;;;;;;2.47;1.60;;;;;;;;;;5007527;28;20060;-69
2023/07/20 06:22:01;;;;;;;1.33;1.23;;;;;;;;;;5002374;28;20077;-73
2023/07/20 06:24:27;;;;;;;2.42;1.48;;;;;;;;;;5003413;28;20052;-72
2023/07/20 06:26:52;;;;;;;1.60;1.50;;;;;;;;;;5003706;28;20459;-72
2023/07/20 06:29:18;;;;;;;3.58;1.55;;;;;;;;;;5004791;28;20061;-75
2023/07/20 06:31:44;;;;;;;1.70;1.45;;;;;;;;;;5005065;28;20059;-71
2023/07/20 06:34:09;;;;;;;1.95;1.52;;;;;;;;;;4995651;28;20236;-75
2023/07/20 06:36:35;;;;;;;2.90;1.40;;;;;;;;;;5003840;28;20045;-71
2023/07/20 06:39:00;;;;;;;2.78;1.50;;;;;;;;;;4999352;28;20058;-71
2023/07/20 06:41:26;;;;;;;2.47;1.70;;;;;;;;;;5000179;28;20128;-72
2023/07/20 06:43:52;;;;;;;2.33;1.70;;;;;;;;;;5001970;28;20046;-70
2023/07/20 06:46:17;;;;;;;7.57;1.77;;;;;;;;;;5001366;28;20905;-72
2023/07/20 06:48:43;;;;;;;2.00;1.38;;;;;;;;;;4999517;28;20049;-71
2023/07/20 06:51:08;;;;;;;1.35;1.10;;;;;;;;;;5004004;28;20045;-71
2023/07/20 06:53:34;;;;;;;2.65;1.70;;;;;;;;;;5001392;28;20062;-70
2023/07/20 06:55:59;;;;;;;3.83;1.30;;;;;;;;;;5000696;28;20034;-72
2023/07/20 06:58:25;;;;;;;4.57;1.70;;;;;;;;;;5000748;28;20172;-72
2023/07/20 07:00:51;;;;;;;1.80;1.60;;;;;;;;;;5001160;28;20038;-73
2023/07/20 07:03:17;;;;;;;1.60;1.45;;;;;;;;;;5001822;28;20904;-72
2023/07/20 07:05:43;;;;;;;2.20;1.45;;;;;;;;;;5001405;28;20400;-72
2023/07/20 07:08:09;;;;;;;1.83;1.38;;;;;;;;;;5001602;28;20045;-72
2023/07/20 07:10:37;;;;;;;1.50;1.10;;;;;;;;;;5002086;28;20515;-73
2023/07/20 07:13:03;;;;;;;2.15;1.35;;;;;;;;;;5000648;28;20053;-71
2023/07/20 07:15:29;;;;;;;4.45;1.40;;;;;;;;;;5000879;28;20257;-70
2023/07/20 07:17:55;;;;;;;1.88;1.63;;;;;;;;;;5007072;28;20144;-74
2023/07/20 07:20:21;;;;;;;2.75;1.48;;;;;;;;;;5001408;28;20084;-72
2023/07/20 07:22:47;;;;;;;2.25;1.50;;;;;;;;;;5001717;28;20140;-73
2023/07/20 07:25:12;;;;;;;3.63;1.50;;;;;;;;;;5000497;28;20107;-72
2023/07/20 07:27:38;;;;;;;5.43;1.50;;;;;;;;;;5000709;28;20049;-71
2023/07/20 07:30:04;;;;;;;3.17;1.25;;;;;;;;;;5000920;28;20046;-73
2023/07/20 07:32:30;;;;;;;1.98;1.35;;;;;;;;;;4999796;28;20046;-72
2023/07/20 07:34:58;;;;;;;1.52;1.40;;;;;;;;;;5000713;28;20096;-73
2023/07/20 07:37:23;;;;;;;2.25;1.25;;;;;;;;;;5000401;28;20060;-71
2023/07/20 07:39:49;;;;;;;2.67;1.42;;;;;;;;;;4999509;28;20042;-72
2023/07/20 07:42:14;;;;;;;2.92;1.60;;;;;;;;;;4999940;28;20038;-71
2023/07/20 07:44:40;;;;;;;2.30;1.55;;;;;;;;;;5000720;28;20054;-72
2023/07/20 07:47:05;;;;;;;3.17;1.42;;;;;;;;;;4999184;28;20042;-74
2023/07/20 07:49:31;;;;;;;3.75;1.65;;;;;;;;;;4999565;28;20057;-71
2023/07/20 07:51:56;;;;;;;6.20;1.48;;;;;;;;;;5000621;28;20053;-73
2023/07/20 07:54:22;;;;;;;1.63;1.40;;;;;;;;;;5002057;28;20084;-69
2023/07/20 07:56:47;;;;;;;7.45;1.38;;;;;;;;;;4999654;28;20399;-72
2023/07/20 07:59:13;;;;;;;2.58;1.50;;;;;;;;;;4998906;28;20403;-72
2023/07/20 08:01:38;;;;;;;4.68;1.40;;;;;;;;;;5000170;28;20427;-71
2023/07/20 08:04:04;;;;;;;6.95;1.40;;;;;;;;;;5000684;28;20052;-73
2023/07/20 08:06:29;;;;;;;1.80;1.20;;;;;;;;;;4997359;28;20459;-72
2023/07/20 08:08:55;;;;;;;1.60;1.25;;;;;;;;;;4998601;28;20108;-72
2023/07/20 08:11:20;;;;;;;3.72;1.42;;;;;;;;;;4999888;28;20514;-71
2023/07/20 08:13:46;;;;;;;2.45;1.25;;;;;;;;;;5000115;28;20037;-71
2023/07/20 08:16:11;;;;;;;3.53;1.38;;;;;;;;;;5001244;28;20042;-72
2023/07/20 08:18:36;;;;;;;3.72;1.60;;;;;;;;;;5000190;28;20538;-73
2023/07/20 08:21:03;;;;;;;4.68;1.52;;;;;;;;;;4999806;28;20438;-72
2023/07/20 08:23:28;;;;;;;3.15;1.35;;;;;;;;;;5000221;28;20578;-73
2023/07/20 08:25:54;;;;;;;1.38;0.98;;;;;;;;;;5000150;28;20115;-71
2023/07/20 08:28:19;;;;;;;3.17;1.35;;;;;;;;;;5000838;28;20046;-70
2023/07/20 08:30:49;;;;;;;4.35;1.50;;;;;;;;;;5000084;28;20081;-73
2023/07/20 08:33:18;;;;;;;2.00;1.45;;;;;;;;;;4998882;28;20708;-72
2023/07/20 08:35:43;;;;;;;2.03;1.40;;;;;;;;;;5000028;28;20380;-74
2023/07/20 08:38:08;;;;;;;2.90;1.20;;;;;;;;;;4998975;28;20565;-71
2023/07/20 08:40:40;;;;;;;2.30;1.33;;;;;;;;;;5000055;28;20060;-71
2023/07/20 08:43:06;;;;;;;2.42;1.52;;;;;;;;;;4998354;28;20698;-74
2023/07/20 08:45:33;;;;;;;1.60;1.10;;;;;;;;;;5000069;28;20041;-72
2023/07/20 08:48:02;;;;;;;1.77;1.30;;;;;;;;;;4999285;28;20604;-72
2023/07/20 08:50:30;;;;;;;2.08;1.20;;;;;;;;;;4999880;28;20049;-71
2023/07/20 08:52:57;;;;;;;2.30;1.33;;;;;;;;;;5001934;28;20057;-72
2023/07/20 08:55:23;;;;;;;1.40;1.30;;;;;;;;;;4999586;28;20058;-72
2023/07/20 08:57:50;;;;;;;2.35;1.13;;;;;;;;;;4999692;28;20085;-72
2023/07/20 09:00:18;;;;;;;1.45;1.30;;;;;;;;;;5000676;28;20092;-71
2023/07/20 09:02:45;;;;;;;3.58;1.42;;;;;;;;;;4998518;28;20535;-72
2023/07/20 09:05:12;;;;;;;2.33;1.40;;;;;;;;;;4999645;28;20065;-72
2023/07/20 09:07:39;;;;;;;2.45;1.40;;;;;;;;;;4999469;28;20569;-72
2023/07/20 09:10:06;;;;;;;2.05;1.52;;;;;;;;;;4999824;28;20112;-71
2023/07/20 09:12:39;;;;;;;1.92;1.30;;;;;;;;;;5000726;28;20427;-71
2023/07/20 09:15:06;;;;;;;1.23;1.13;;;;;;;;;;4999156;28;20042;-70
2023/07/20 09:17:31;;;;;;;1.42;1.25;;;;;;;;;;4999287;28;20062;-71
2023/07/20 09:19:57;;;;;;;1.40;1.30;;;;;;;;;;5004688;28;20084;-72
2023/07/20 09:22:29;;;;;;;2.55;1.48;;;;;;;;;;5000954;28;20069;-73
2023/07/20 09:24:55;;;;;;;3.10;1.50;;;;;;;;;;5003623;28;20792;-73
2023/07/20 09:27:20;;;;;;;3.63;1.55;;;;;;;;;;5003193;28;20056;-72
2023/07/20 09:29:50;;;;;;;2.80;1.50;;;;;;;;;;5003043;28;20064;-73
2023/07/20 09:32:22;;;;;;;2.28;1.35;;;;;;;;;;5002580;28;20459;-72
2023/07/20 09:34:51;;;;;;;2.20;1.30;;;;;;;;;;5003286;28;20046;-69
2023/07/20 09:37:22;;;;;;;2.50;1.60;;;;;;;;;;5002132;28;20046;-70
2023/07/20 09:39:48;;;;;;;2.53;1.05;;;;;;;;;;5002983;28;20054;-71
2023/07/20 09:42:15;;;;;;;4.07;1.48;;;;;;;;;;5008520;28;20053;-69
2023/07/20 09:44:43;;;;;;;2.28;1.30;;;;;;;;;;5004274;28;20045;-72
2023/07/20 09:47:09;;;;;;;3.03;1.45;;;;;;;;;;5002152;28;20566;-73
2023/07/20 09:49:40;;;;;;;1.42;1.33;;;;;;;;;;5002491;28;20069;-71
2023/07/20 09:52:08;;;;;;;2.33;1.40;;;;;;;;;;5002814;28;20038;-71
2023/07/20 09:54:35;;;;;;;1.90;1.40;;;;;;;;;;5002407;28;20061;-71
2023/07/20 09:57:02;;;;;;;1.70;1.55;;;;;;;;;;5002366;28;20044;-70
2023/07/20 09:59:28;;;;;;;2.45;1.38;;;;;;;;;;5002585;28;20049;-69
2023/07/20 10:01:59;;;;;;;1.42;1.10;;;;;;;;;;5002676;28;20054;-71
2023/07/20 10:04:26;;;;;;;1.23;1.13;;;;;;;;;;5003292;28;20466;-72
2023/07/20 10:06:54;;;;;;;2.05;1.40;;;;;;;;;;5001459;28;20041;-71
2023/07/20 10:09:22;;;;;;;1.25;1.05;;;;;;;;;;4999423;28;20053;-72
2023/07/20 10:11:50;;;;;;;2.30;1.20;;;;;;;;;;5006050;28;20073;-70
2023/07/20 10:14:20;;;;;;;1.85;1.20;;;;;;;;;;5002600;28;20033;-70
2023/07/20 10:16:58;;;;;;;1.10;1.00;;;;;;;;;;5002450;28;20145;-71
2023/07/20 10:19:39;;;;;;;1.85;1.30;;;;;;;;;;5001506;28;20046;-71
2023/07/20 10:22:11;;;;;;;1.58;1.30;;;;;;;;;;5000071;28;20133;-71
2023/07/20 10:24:39;;;;;;;6.22;1.20;;;;;;;;;;5002282;28;20050;-70
2023/07/20 10:27:05;;;;;;;4.03;1.30;;;;;;;;;;5001448;28;20076;-70
2023/07/20 10:29:32;;;;;;;6.30;1.33;;;;;;;;;;5001232;28;20081;-71
2023/07/20 10:31:57;;;;;;;2.67;1.10;;;;;;;;;;5001445;28;20057;-71
2023/07/20 10:34:24;;;;;;;3.03;1.30;;;;;;;;;;5002423;28;20038;-73
2023/07/20 10:36:52;;;;;;;7.78;1.38;;;;;;;;;;5000785;28;20414;-72
2023/07/20 10:39:27;;;;;;;4.00;1.27;;;;;;;;;;5002033;28;20190;-73
2023/07/20 10:42:03;;;;;;;2.83;1.10;;;;;;;;;;5002354;28;20545;-72
2023/07/20 10:44:29;;;;;;;3.65;1.42;;;;;;;;;;5000556;28;20065;-71
2023/07/20 10:47:03;;;;;;;1.77;1.02;;;;;;;;;;5002629;28;20054;-72
2023/07/20 10:49:28;;;;;;;6.13;1.20;;;;;;;;;;5006189;28;20044;-72
2023/07/20 10:52:04;;;;;;;1.42;1.00;;;;;;;;;;5004104;28;20046;-70
2023/07/20 10:54:30;;;;;;;6.70;1.50;;;;;;;;;;5003612;28;20115;-70
2023/07/20 10:56:57;;;;;;;2.63;1.38;;;;;;;;;;5001928;28;20046;-70
2023/07/20 10:59:31;;;;;;;1.08;0.98;;;;;;;;;;5001095;28;20045;-70
2023/07/20 11:02:02;;;;;;;1.75;1.13;;;;;;;;;;5000536;28;20952;-70
2023/07/20 11:04:46;;;;;;;1.35;1.13;;;;;;;;;;5001299;28;20072;-70
2023/07/20 11:07:16;;;;;;;3.38;1.45;;;;;;;;;;5001328;28;20418;-71
2023/07/20 11:09:42;;;;;;;5.13;1.38;;;;;;;;;;5001424;28;20060;-70
2023/07/20 11:12:13;;;;;;;1.42;1.30;;;;;;;;;;5000618;28;20045;-72
2023/07/20 11:14:42;;;;;;;2.35;1.40;;;;;;;;;;5000401;28;20046;-71
2023/07/20 11:17:13;;;;;;;2.20;1.23;;;;;;;;;;4999541;28;20046;-71
2023/07/20 11:19:39;;;;;;;2.92;1.42;;;;;;;;;;5001292;28;20415;-71
2023/07/20 11:22:07;;;;;;;2.33;1.30;;;;;;;;;;5001526;28;20046;-71
2023/07/20 11:24:33;;;;;;;1.15;1.05;;;;;;;;;;5006732;28;20033;-74
2023/07/20 11:27:00;;;;;;;4.22;1.23;;;;;;;;;;4998917;28;20091;-72
2023/07/20 11:29:26;;;;;;;2.28;1.20;;;;;;;;;;5001362;28;20049;-70
2023/07/20 11:31:52;;;;;;;2.20;1.17;;;;;;;;;;4983680;28;20041;-70
2023/07/20 11:34:19;;;;;;;1.70;1.23;;;;;;;;;;5000393;28;20064;-69
2023/07/20 11:36:46;;;;;;;2.83;1.65;;;;;;;;;;5000189;28;20120;-69
2023/07/20 11:39:14;;;;;;;2.00;1.27;;;;;;;;;;5003006;28;20046;-69
2023/07/20 11:41:46;;;;;;;3.88;1.20;;;;;;;;;;4998969;28;20056;-69
2023/07/20 11:44:15;;;;;;;1.67;1.33;;;;;;;;;;5000442;28;20511;-70
2023/07/20 11:46:44;;;;;;;4.45;1.30;;;;;;;;;;5000030;28;20053;-69
2023/07/20 11:49:10;;;;;;;1.42;1.13;;;;;;;;;;4999938;28;20088;-69
2023/07/20 11:51:37;;;;;;;1.40;1.30;;;;;;;;;;5000918;28;20080;-69
2023/07/20 11:54:04;;;;;;;2.92;1.10;;;;;;;;;;4999566;28;20050;-69
2023/07/20 11:56:30;;;;;;;1.55;1.40;;;;;;;;;;5006517;28;20114;-69
2023/07/20 11:59:00;;;;;;;2.83;1.45;;;;;;;;;;5002358;28;20758;-69
2023/07/20 12:01:28;;;;;;;3.72;1.10;;;;;;;;;;5005549;28;20057;-69
2023/07/20 12:03:56;;;;;;;1.63;1.25;;;;;;;;;;5006267;28;20048;-70
2023/07/20 12:06:26;;;;;;;1.65;1.13;;;;;;;;;;5004548;28;20538;-71
2023/07/20 12:08:58;;;;;;;2.28;1.48;;;;;;;;;;5026215;28;20045;-72
2023/07/20 12:11:37;;;;;;;1.58;1.30;;;;;;;;;;5004786;28;20058;-72
2023/07/20 12:14:04;;;;;;;2.42;1.40;;;;;;;;;;5010030;28;20507;-72
2023/07/20 12:16:31;;;;;;;9.25;1.60;;;;;;;;;;5007591;28;20507;-73
2023/07/20 12:19:01;;;;;;;1.67;1.10;;;;;;;;;;5006147;28;20057;-71
2023/07/20 12:21:28;;;;;;;2.03;1.00;;;;;;;;;;5011213;28;20073;-73
2023/07/20 12:23:56;;;;;;;2.42;1.30;;;;;;;;;;4991659;28;20217;-72
2023/07/20 12:26:23;;;;;;;2.15;1.20;;;;;;;;;;5000064;28;20092;-72
2023/07/20 12:28:49;;;;;;;2.22;1.50;;;;;;;;;;5001852;28;20045;-73
2023/07/20 12:31:15;;;;;;;4.22;1.45;;;;;;;;;;5001517;28;20048;-72
2023/07/20 12:33:41;;;;;;;1.88;1.30;;;;;;;;;;4991948;28;20061;-72
2023/07/20 12:36:08;;;;;;;3.17;1.30;;;;;;;;;;5001566;28;21034;-73
2023/07/20 12:38:34;;;;;;;7.43;1.65;;;;;;;;;;5008699;28;20033;-71
2023/07/20 12:41:03;;;;;;;2.45;1.48;;;;;;;;;;5005877;28;20876;-73
2023/07/20 12:43:29;;;;;;;2.13;1.40;;;;;;;;;;4997592;28;20513;-72
2023/07/20 12:45:56;;;;;;;2.53;1.40;;;;;;;;;;4993529;28;20054;-72
2023/07/20 12:48:21;;;;;;;2.03;1.20;;;;;;;;;;4999236;28;20046;-72
2023/07/20 12:50:47;;;;;;;1.77;1.30;;;;;;;;;;4996624;28;20064;-72
2023/07/20 12:53:13;;;;;;;1.80;1.35;;;;;;;;;;4996389;28;20058;-72
2023/07/20 12:55:42;;;;;;;1.50;1.30;;;;;;;;;;5003519;28;20058;-74
2023/07/20 12:58:08;;;;;;;2.45;1.48;;;;;;;;;;4998791;28;20045;-72
2023/07/20 13:00:34;;;;;;;7.30;1.75;;;;;;;;;;5003530;28;20103;-73
2023/07/20 13:02:59;;;;;;;1.40;1.30;;;;;;;;;;5001545;28;20149;-72
2023/07/20 13:05:25;;;;;;;3.08;1.35;;;;;;;;;;4999663;28;20080;-72
2023/07/20 13:07:50;;;;;;;2.00;1.50;;;;;;;;;;5004179;28;20061;-71
2023/07/20 13:10:16;;;;;;;1.98;1.20;;;;;;;;;;5007177;28;20056;-70
2023/07/20 13:12:42;;;;;;;1.80;1.40;;;;;;;;;;5005195;28;20037;-71
2023/07/20 13:15:09;;;;;;;1.55;1.33;;;;;;;;;;5002894;28;20093;-73
2023/07/20 13:17:35;;;;;;;1.67;1.27;;;;;;;;;;4999085;28;20050;-71
2023/07/20 13:20:04;;;;;;;3.95;1.20;;;;;;;;;;5003724;28;20065;-73
2023/07/20 13:22:30;;;;;;;5.38;1.52;;;;;;;;;;5004204;28;20829;-72
2023/07/20 13:24:55;;;;;;;2.83;1.30;;;;;;;;;;5001286;28;20137;-72
2023/07/20 13:27:21;;;;;;;2.13;1.25;;;;;;;;;;5001191;28;20104;-74
2023/07/20 13:29:47;;;;;;;1.23;1.13;;;;;;;;;;5002379;28;20081;-73
2023/07/20 13:32:15;;;;;;;2.33;1.55;;;;;;;;;;5002111;28;20048;-73
2023/07/20 13:34:41;;;;;;;5.47;1.20;;;;;;;;;;5006633;28;20103;-73
2023/07/20 13:37:08;;;;;;;1.35;1.23;;;;;;;;;;5005929;28;20918;-72
2023/07/20 13:39:33;;;;;;;4.88;1.42;;;;;;;;;;5001534;28;20048;-71
2023/07/20 13:42:01;;;;;;;3.60;1.30;;;;;;;;;;5013321;28;20045;-73
2023/07/20 13:44:26;;;;;;;1.30;1.13;;;;;;;;;;5019515;28;20041;-72
2023/07/20 13:46:52;;;;;;;1.55;1.40;;;;;;;;;;4998970;28;20045;-73
2023/07/20 13:49:17;;;;;;;1.88;1.02;;;;;;;;;;4998492;28;20158;-72
2023/07/20 13:51:43;;;;;;;1.48;1.10;;;;;;;;;;4998931;28;20046;-72
2023/07/20 13:54:08;;;;;;;2.95;1.67;;;;;;;;;;5007958;28;20994;-72
2023/07/20 13:56:34;;;;;;;4.18;1.30;;;;;;;;;;5000189;28;20053;-73
2023/07/20 13:59:00;;;;;;;1.25;1.15;;;;;;;;;;5016544;28;20502;-73
2023/07/20 14:01:27;;;;;;;1.48;1.05;;;;;;;;;;5001382;28;20069;-72
2023/07/20 14:03:53;;;;;;;3.50;1.00;;;;;;;;;;5000465;28;20045;-71
2023/07/20 14:06:19;;;;;;;9.90;1.95;;;;;;;;;;5003333;28;20050;-71
2023/07/20 14:08:48;;;;;;;2.05;1.08;;;;;;;;;;5006071;28;20228;-70
2023/07/20 14:11:14;;;;;;;1.20;1.10;;;;;;;;;;5006322;28;20041;-71
2023/07/20 14:13:40;;;;;;;6.13;1.30;;;;;;;;;;5006543;28;20046;-74
2023/07/20 14:16:06;;;;;;;4.20;1.23;;;;;;;;;;5004282;28;20053;-73
2023/07/20 14:18:31;;;;;;;3.72;1.25;;;;;;;;;;5015956;28;20982;-74
2023/07/20 14:20:56;;;;;;;2.33;1.23;;;;;;;;;;4999889;28;20049;-73
2023/07/20 14:23:22;;;;;;;1.60;1.17;;;;;;;;;;5006791;28;20045;-73
2023/07/20 14:25:48;;;;;;;3.63;1.33;;;;;;;;;;5001690;28;20054;-72
2023/07/20 14:28:13;;;;;;;4.18;1.30;;;;;;;;;;5005526;28;20410;-74
2023/07/20 14:30:39;;;;;;;1.67;1.50;;;;;;;;;;4997847;28;20061;-72
2023/07/20 14:33:04;;;;;;;1.67;1.05;;;;;;;;;;4998410;28;20042;-74
2023/07/20 14:35:30;;;;;;;2.85;1.40;;;;;;;;;;5006249;28;20042;-72
2023/07/20 14:37:55;;;;;;;2.58;1.17;;;;;;;;;;5002971;28;20470;-72
2023/07/20 14:40:21;;;;;;;2.13;1.73;;;;;;;;;;4997627;28;20049;-71
2023/07/20 14:42:46;;;;;;;2.97;1.20;;;;;;;;;;5000929;28;20120;-72